createdAt,value
2018-09-30T00:01:00.629Z,4.28
2018-09-30T00:03:29.166Z,3.93
2018-09-30T00:05:57.665Z,3.90
2018-09-30T00:08:26.166Z,3.90
2018-09-30T00:10:54.853Z,3.40
2018-09-30T00:13:23.361Z,4.10
2018-09-30T00:15:51.913Z,4.57
2018-09-30T00:18:20.444Z,4.20
2018-09-30T00:20:48.987Z,4.00
2018-09-30T00:23:17.734Z,4.08
2018-09-30T00:25:52.368Z,4.40
2018-09-30T00:28:21.168Z,3.87
2018-09-30T00:30:49.848Z,4.23
2018-09-30T00:33:18.701Z,4.13
2018-09-30T00:35:47.435Z,3.93
2018-09-30T00:43:10.176Z,3.80
2018-09-30T00:45:39.010Z,4.10
2018-09-30T00:48:07.522Z,4.12
2018-09-30T00:50:36.344Z,4.77
2018-09-30T00:53:05.268Z,4.07
2018-09-30T00:55:33.734Z,3.75
2018-09-30T00:58:02.435Z,3.60
2018-09-30T01:00:31.146Z,4.00
2018-09-30T01:02:59.844Z,4.00
2018-09-30T01:05:28.466Z,3.90
2018-09-30T01:07:57.106Z,4.33
2018-09-30T01:10:25.654Z,4.50
2018-09-30T01:12:54.261Z,4.30
2018-09-30T01:15:22.835Z,4.37
2018-09-30T01:17:51.358Z,4.60
2018-09-30T01:20:20.010Z,4.47
2018-09-30T01:22:48.640Z,4.70
2018-09-30T01:25:17.740Z,4.05
2018-09-30T01:27:46.758Z,4.47
2018-09-30T01:35:09.427Z,4.63
2018-09-30T01:37:38.066Z,4.90
2018-09-30T01:40:06.893Z,4.63
2018-09-30T01:42:35.702Z,4.62
2018-09-30T01:45:04.277Z,4.80
2018-09-30T01:47:32.810Z,5.40
2018-09-30T01:50:01.919Z,5.27
2018-09-30T01:52:55.211Z,4.90
2018-09-30T01:55:23.817Z,6.43
2018-09-30T01:57:52.429Z,5.20
2018-09-30T02:00:20.974Z,5.47
2018-09-30T02:02:49.562Z,5.72
2018-09-30T02:05:18.268Z,6.20
2018-09-30T02:07:47.789Z,5.20
2018-09-30T02:10:18.336Z,5.72
2018-09-30T02:12:46.861Z,6.17
2018-09-30T02:20:12.676Z,5.90
2018-09-30T02:22:41.191Z,5.83
2018-09-30T02:25:09.729Z,5.30
2018-09-30T02:27:41.134Z,6.23
2018-09-30T02:30:10.130Z,5.47
2018-09-30T02:32:38.614Z,5.73
2018-09-30T02:35:07.219Z,5.83
2018-09-30T02:37:35.737Z,5.50
2018-09-30T02:40:04.317Z,5.47
2018-09-30T02:42:32.819Z,5.23
2018-09-30T02:45:01.309Z,4.83
2018-09-30T02:47:29.799Z,5.40
2018-09-30T02:49:58.838Z,5.30
2018-09-30T02:52:27.329Z,5.70
2018-09-30T02:54:56.385Z,5.53
2018-09-30T02:57:24.909Z,5.63
2018-09-30T02:59:53.795Z,5.95
2018-09-30T03:02:22.278Z,6.05
2018-09-30T03:04:50.798Z,6.27
2018-09-30T03:07:24.505Z,5.50
2018-09-30T03:09:53.510Z,5.93
2018-09-30T03:12:22.007Z,6.20
2018-09-30T03:14:50.541Z,6.13
2018-09-30T03:17:19.079Z,5.97
2018-09-30T03:19:47.585Z,6.00
2018-09-30T03:27:09.526Z,8.33
2018-09-30T03:29:38.778Z,9.20
2018-09-30T03:32:07.308Z,8.70
2018-09-30T03:34:35.866Z,8.97
2018-09-30T03:37:04.594Z,8.47
2018-09-30T03:39:33.479Z,8.27
2018-09-30T03:42:01.986Z,7.77
2018-09-30T03:44:30.474Z,9.25
2018-09-30T03:46:58.957Z,8.47
2018-09-30T03:49:28.102Z,9.25
2018-09-30T03:51:56.593Z,8.53
2018-09-30T03:54:25.097Z,7.90
2018-09-30T03:56:53.616Z,7.07
2018-09-30T03:59:22.115Z,6.93
2018-09-30T04:01:50.633Z,6.60
2018-09-30T04:04:19.154Z,7.43
2018-09-30T04:06:47.725Z,6.33
2018-09-30T04:09:17.402Z,6.40
2018-09-30T04:11:46.377Z,5.63
2018-09-30T04:19:11.194Z,6.80
2018-09-30T04:21:39.673Z,6.37
2018-09-30T04:24:09.181Z,6.00
2018-09-30T04:26:38.902Z,6.77
2018-09-30T04:29:07.515Z,6.00
2018-09-30T04:31:36.658Z,6.70
2018-09-30T04:34:05.805Z,6.47
2018-09-30T04:36:35.142Z,6.28
2018-09-30T04:39:04.795Z,6.47
2018-09-30T04:41:33.345Z,6.63
2018-09-30T04:44:03.115Z,7.03
2018-09-30T04:46:31.599Z,7.55
2018-09-30T04:49:00.145Z,7.30
2018-09-30T04:51:28.626Z,6.87
2018-09-30T04:53:57.135Z,6.73
2018-09-30T04:56:25.970Z,6.90
2018-09-30T04:58:54.487Z,6.37
2018-09-30T05:01:22.985Z,6.80
2018-09-30T05:03:51.546Z,6.60
2018-09-30T05:06:20.038Z,6.73
2018-09-30T05:08:48.559Z,6.80
2018-09-30T05:11:17.463Z,7.35
2018-09-30T05:13:45.981Z,7.00
2018-09-30T05:21:12.634Z,7.50
2018-09-30T05:23:41.101Z,7.20
2018-09-30T05:26:09.960Z,6.90
2018-09-30T05:28:38.504Z,6.53
2018-09-30T05:31:08.257Z,7.13
2018-09-30T05:33:36.951Z,6.90
2018-09-30T05:36:06.196Z,6.53
2018-09-30T05:38:35.217Z,6.93
2018-09-30T05:41:03.710Z,6.57
2018-09-30T05:43:32.643Z,6.40
2018-09-30T05:46:01.186Z,5.60
2018-09-30T05:48:29.857Z,6.05
2018-09-30T05:50:58.409Z,6.00
2018-09-30T05:53:27.111Z,5.87
2018-09-30T05:55:56.328Z,5.90
2018-09-30T05:58:25.565Z,6.60
2018-09-30T06:00:54.093Z,6.77
2018-09-30T06:03:22.657Z,6.83
2018-09-30T06:05:51.173Z,7.03
2018-09-30T06:08:19.720Z,5.87
2018-09-30T06:10:48.234Z,6.17
2018-09-30T06:13:17.643Z,6.05
2018-09-30T06:15:46.174Z,5.00
2018-09-30T06:23:13.673Z,5.87
2018-09-30T06:25:42.259Z,6.83
2018-09-30T06:28:10.772Z,7.10
2018-09-30T06:30:39.375Z,6.13
2018-09-30T06:33:07.856Z,5.90
2018-09-30T06:35:37.650Z,5.97
2018-09-30T06:38:06.327Z,6.10
2018-09-30T06:40:34.909Z,7.27
2018-09-30T06:43:03.817Z,5.78
2018-09-30T06:45:33.497Z,6.20
2018-09-30T06:48:02.698Z,6.00
2018-09-30T06:50:31.600Z,5.23
2018-09-30T06:53:00.179Z,5.40
2018-09-30T06:55:28.878Z,5.40
2018-09-30T06:57:57.626Z,5.80
2018-09-30T07:00:26.122Z,5.58
2018-09-30T07:02:54.859Z,6.50
2018-09-30T07:05:23.400Z,6.53
2018-09-30T07:07:52.269Z,6.57
2018-09-30T07:10:20.754Z,6.62
2018-09-30T07:12:49.447Z,7.00
2018-09-30T07:15:17.975Z,6.07
2018-09-30T07:17:46.465Z,15.13
2018-09-30T07:25:13.245Z,5.87
2018-09-30T07:27:41.809Z,5.83
2018-09-30T07:30:10.484Z,5.67
2018-09-30T07:32:38.989Z,4.83
2018-09-30T07:35:07.521Z,5.30
2018-09-30T07:37:36.524Z,5.30
2018-09-30T07:40:05.122Z,7.87
2018-09-30T07:42:33.631Z,6.10
2018-09-30T07:45:02.123Z,5.73
2018-09-30T07:47:31.218Z,8.87
2018-09-30T07:49:59.698Z,5.83
2018-09-30T07:52:28.248Z,5.47
2018-09-30T07:54:56.739Z,5.60
2018-09-30T07:57:25.258Z,6.00
2018-09-30T07:59:53.734Z,6.73
2018-09-30T08:02:22.387Z,6.13
2018-09-30T08:04:50.959Z,6.60
2018-09-30T08:07:19.486Z,5.65
2018-09-30T08:09:48.017Z,6.10
2018-09-30T08:12:17.397Z,6.73
2018-09-30T08:14:45.866Z,7.33
2018-09-30T08:22:10.403Z,8.13
2018-09-30T08:24:38.966Z,7.80
2018-09-30T08:27:08.490Z,7.37
2018-09-30T08:29:37.435Z,7.50
2018-09-30T08:32:05.958Z,7.90
2018-09-30T08:34:34.442Z,9.00
2018-09-30T08:37:02.977Z,8.17
2018-09-30T08:39:32.106Z,7.67
2018-09-30T08:42:00.622Z,9.03
2018-09-30T08:44:28.937Z,8.93
2018-09-30T08:46:57.569Z,9.67
2018-09-30T08:49:26.126Z,8.53
2018-09-30T08:51:54.672Z,8.80
2018-09-30T08:54:23.210Z,9.27
2018-09-30T08:56:51.727Z,8.90
2018-09-30T08:59:20.327Z,8.50
2018-09-30T09:01:48.875Z,9.80
2018-09-30T09:04:18.718Z,9.58
2018-09-30T09:06:47.277Z,9.87
2018-09-30T09:14:11.143Z,10.70
2018-09-30T09:16:39.647Z,11.13
2018-09-30T09:19:08.161Z,12.13
2018-09-30T09:21:37.375Z,11.20
2018-09-30T09:24:05.998Z,9.37
2018-09-30T09:26:34.555Z,8.45
2018-09-30T09:29:03.146Z,9.83
2018-09-30T09:31:31.664Z,10.20
2018-09-30T09:34:00.266Z,11.80
2018-09-30T09:36:29.590Z,13.13
2018-09-30T09:38:58.074Z,11.73
2018-09-30T09:41:26.804Z,11.10
2018-09-30T09:43:55.329Z,10.83
2018-09-30T09:46:23.837Z,11.95
2018-09-30T09:48:52.386Z,10.93
2018-09-30T09:51:21.334Z,11.35
2018-09-30T09:53:49.934Z,11.90
2018-09-30T09:56:18.523Z,11.90
2018-09-30T09:58:47.216Z,12.93
2018-09-30T10:06:09.910Z,12.20
2018-09-30T10:08:40.748Z,14.43
2018-09-30T10:11:09.873Z,13.60
2018-09-30T10:13:38.437Z,15.00
2018-09-30T10:16:07.124Z,14.37
2018-09-30T10:18:35.635Z,16.55
2018-09-30T10:21:04.599Z,18.53
2018-09-30T10:23:33.189Z,17.30
2018-09-30T10:26:01.799Z,17.17
2018-09-30T10:28:30.387Z,17.98
2018-09-30T10:30:58.910Z,18.90
2018-09-30T10:33:27.466Z,23.53
2018-09-30T10:35:56.054Z,18.23
2018-09-30T10:38:24.736Z,20.47
2018-09-30T10:40:55.117Z,19.53
2018-09-30T10:43:24.063Z,18.90
2018-09-30T10:45:52.638Z,21.13
2018-09-30T10:48:21.277Z,20.17
2018-09-30T10:50:49.934Z,21.70
2018-09-30T10:53:18.445Z,20.30
2018-09-30T10:55:47.075Z,20.93
2018-09-30T11:03:13.590Z,22.57
2018-09-30T11:05:42.161Z,21.07
2018-09-30T11:08:10.673Z,21.77
2018-09-30T11:10:39.262Z,19.67
2018-09-30T11:13:07.805Z,21.77
2018-09-30T11:15:36.345Z,21.40
2018-09-30T11:18:06.113Z,21.40
2018-09-30T11:20:34.909Z,23.00
2018-09-30T11:23:03.519Z,21.43
2018-09-30T11:25:32.170Z,21.60
2018-09-30T11:28:00.903Z,21.40
2018-09-30T11:30:30.054Z,23.02
2018-09-30T11:32:59.022Z,21.85
2018-09-30T11:35:27.976Z,22.10
2018-09-30T11:37:56.553Z,24.25
2018-09-30T11:40:25.152Z,22.97
2018-09-30T11:42:53.735Z,21.87
2018-09-30T11:45:22.819Z,21.40
2018-09-30T11:47:51.783Z,23.20
2018-09-30T11:50:20.417Z,22.00
2018-09-30T11:52:49.942Z,22.30
2018-09-30T11:55:18.556Z,21.70
2018-09-30T11:57:47.475Z,23.93
2018-09-30T12:00:17.639Z,22.77
2018-09-30T12:02:46.747Z,23.03
2018-09-30T12:10:14.343Z,23.20
2018-09-30T12:12:43.099Z,22.07
2018-09-30T12:15:11.629Z,21.50
2018-09-30T12:17:40.169Z,22.40
2018-09-30T12:20:10.149Z,23.60
2018-09-30T12:22:39.437Z,20.37
2018-09-30T12:25:08.023Z,23.00
2018-09-30T12:27:36.543Z,22.20
2018-09-30T12:30:05.215Z,22.00
2018-09-30T12:32:34.445Z,22.42
2018-09-30T12:35:03.033Z,23.83
2018-09-30T12:37:31.631Z,22.93
2018-09-30T12:40:00.222Z,20.77
2018-09-30T12:42:28.791Z,21.23
2018-09-30T12:44:57.350Z,20.17
2018-09-30T12:47:26.375Z,23.07
2018-09-30T12:49:54.865Z,22.43
2018-09-30T12:52:23.406Z,22.70
2018-09-30T12:54:52.683Z,22.33
2018-09-30T12:57:22.354Z,22.00
2018-09-30T12:59:50.868Z,21.70
2018-09-30T13:02:19.450Z,21.20
2018-09-30T13:04:48.041Z,21.60
2018-09-30T13:07:18.343Z,22.40
2018-09-30T13:09:46.913Z,21.43
2018-09-30T13:17:13.873Z,20.27
2018-09-30T13:19:42.524Z,22.20
2018-09-30T13:22:11.060Z,22.30
2018-09-30T13:24:40.806Z,22.53
2018-09-30T13:27:09.430Z,23.20
2018-09-30T13:29:37.942Z,21.17
2018-09-30T13:32:06.730Z,22.47
2018-09-30T13:34:35.257Z,20.93
2018-09-30T13:37:03.871Z,22.10
2018-09-30T13:39:32.494Z,21.90
2018-09-30T13:42:01.076Z,21.63
2018-09-30T13:44:29.680Z,21.97
2018-09-30T13:46:58.351Z,18.67
2018-09-30T13:49:27.359Z,19.40
2018-09-30T13:51:55.912Z,21.10
2018-09-30T13:54:24.527Z,21.40
2018-09-30T13:56:53.062Z,19.97
2018-09-30T13:59:21.672Z,19.75
2018-09-30T14:01:50.290Z,22.33
2018-09-30T14:04:18.851Z,20.73
2018-09-30T14:06:47.435Z,23.20
2018-09-30T14:09:17.893Z,20.37
2018-09-30T14:11:46.610Z,21.93
2018-09-30T14:19:09.850Z,20.77
2018-09-30T14:21:39.870Z,20.97
2018-09-30T14:24:08.405Z,20.13
2018-09-30T14:26:36.961Z,22.23
2018-09-30T14:29:05.627Z,20.27
2018-09-30T14:31:34.471Z,20.12
2018-09-30T14:34:03.082Z,20.57
2018-09-30T14:36:31.797Z,19.15
2018-09-30T14:39:00.298Z,20.30
2018-09-30T14:41:28.869Z,19.63
2018-09-30T14:43:57.630Z,21.50
2018-09-30T14:46:26.137Z,20.82
2018-09-30T14:48:54.654Z,21.93
2018-09-30T14:51:23.438Z,21.03
2018-09-30T14:53:51.933Z,22.43
2018-09-30T14:56:20.445Z,21.00
2018-09-30T14:58:48.921Z,21.60
2018-09-30T15:01:17.465Z,18.52
2018-09-30T15:03:45.998Z,19.47
2018-09-30T15:11:12.224Z,20.57
2018-09-30T15:13:40.718Z,20.07
2018-09-30T15:16:09.320Z,21.67
2018-09-30T15:18:37.871Z,21.10
2018-09-30T15:21:07.800Z,23.10
2018-09-30T15:23:36.309Z,21.00
2018-09-30T15:26:04.899Z,21.37
2018-09-30T15:28:33.390Z,19.52
2018-09-30T15:31:02.029Z,22.07
2018-09-30T15:33:30.691Z,20.20
2018-09-30T15:35:59.307Z,18.70
2018-09-30T15:38:27.976Z,19.67
2018-09-30T15:40:56.609Z,19.20
2018-09-30T15:43:25.116Z,21.12
2018-09-30T15:45:53.584Z,19.00
2018-09-30T15:48:23.562Z,19.67
2018-09-30T15:50:52.038Z,20.60
2018-09-30T15:53:20.874Z,20.95
2018-09-30T15:55:49.374Z,21.20
2018-09-30T15:58:17.837Z,20.40
2018-09-30T16:00:46.311Z,20.00
2018-09-30T16:08:14.898Z,22.77
2018-09-30T16:10:43.491Z,22.27
2018-09-30T16:13:12.099Z,22.30
2018-09-30T16:15:40.660Z,23.43
2018-09-30T16:18:09.175Z,30.00
2018-09-30T16:20:37.689Z,22.30
2018-09-30T16:23:06.791Z,25.20
2018-09-30T16:25:35.282Z,26.00
2018-09-30T16:28:03.854Z,23.77
2018-09-30T16:30:32.568Z,22.83
2018-09-30T16:33:01.075Z,25.37
2018-09-30T16:35:29.584Z,24.50
2018-09-30T16:37:58.641Z,25.13
2018-09-30T16:40:27.162Z,27.30
2018-09-30T16:42:55.678Z,25.20
2018-09-30T16:45:24.262Z,26.07
2018-09-30T16:47:52.758Z,26.63
2018-09-30T16:50:21.414Z,26.15
2018-09-30T16:52:50.892Z,26.30
2018-09-30T16:55:19.975Z,26.10
2018-09-30T16:57:48.529Z,27.37
2018-09-30T17:00:18.862Z,25.54
2018-09-30T17:02:47.382Z,25.87
2018-09-30T17:05:18.770Z,24.90
2018-09-30T17:07:47.278Z,26.20
2018-09-30T17:10:17.755Z,27.60
2018-09-30T17:12:46.320Z,23.83
2018-09-30T17:20:11.433Z,27.73
2018-09-30T17:22:40.102Z,26.97
2018-09-30T17:25:08.613Z,26.07
2018-09-30T17:27:37.184Z,32.60
2018-09-30T17:30:05.806Z,31.47
2018-09-30T17:32:34.332Z,30.00
2018-09-30T17:35:02.878Z,29.30
2018-09-30T17:37:31.446Z,30.12
2018-09-30T17:39:59.962Z,28.10
2018-09-30T17:42:28.829Z,29.70
2018-09-30T17:44:57.422Z,28.23
2018-09-30T17:47:26.198Z,26.30
2018-09-30T17:49:54.870Z,31.93
2018-09-30T17:52:23.466Z,29.50
2018-09-30T17:54:52.092Z,28.00
2018-09-30T17:57:21.673Z,29.05
2018-09-30T17:59:50.279Z,28.70
2018-09-30T18:02:18.809Z,33.27
2018-09-30T18:04:47.390Z,32.60
2018-09-30T18:07:17.379Z,37.50
2018-09-30T18:09:46.293Z,40.80
2018-09-30T18:17:13.525Z,36.27
2018-09-30T18:19:42.136Z,35.30
2018-09-30T18:22:10.923Z,40.70
2018-09-30T18:24:39.538Z,36.00
2018-09-30T18:27:08.070Z,35.80
2018-09-30T18:29:36.680Z,36.83
2018-09-30T18:32:05.908Z,37.70
2018-09-30T18:34:34.438Z,39.73
2018-09-30T18:37:03.010Z,41.57
2018-09-30T18:39:33.254Z,38.97
2018-09-30T18:42:01.807Z,37.27
2018-09-30T18:44:30.335Z,36.07
2018-09-30T18:46:59.525Z,36.00
2018-09-30T18:49:28.243Z,35.93
2018-09-30T18:51:56.762Z,38.60
2018-09-30T18:54:25.392Z,34.50
2018-09-30T18:56:54.119Z,31.20
2018-09-30T18:59:23.460Z,33.57
2018-09-30T19:01:52.224Z,34.70
2018-09-30T19:04:21.056Z,32.17
2018-09-30T19:06:50.151Z,32.70
2018-09-30T19:09:18.788Z,33.47
2018-09-30T19:11:48.159Z,34.00
2018-09-30T19:14:18.753Z,33.94
2018-09-30T19:16:47.360Z,32.60
2018-09-30T19:19:17.531Z,32.13
2018-09-30T19:21:46.092Z,33.23
2018-09-30T19:34:07.514Z,34.30
2018-09-30T19:36:36.009Z,35.13
2018-09-30T19:39:06.991Z,31.55
2018-09-30T19:41:35.676Z,33.78
2018-09-30T19:44:04.195Z,33.27
2018-09-30T19:46:32.734Z,36.00
2018-09-30T19:49:01.347Z,33.10
2018-09-30T19:51:30.040Z,34.33
2018-09-30T19:53:58.907Z,35.68
2018-09-30T19:56:28.744Z,34.93
2018-09-30T19:58:57.246Z,37.60
2018-09-30T20:01:26.280Z,34.30
2018-09-30T20:03:54.797Z,34.60
2018-09-30T20:06:23.364Z,37.15
2018-09-30T20:08:51.869Z,33.90
2018-09-30T20:11:20.878Z,32.87
2018-09-30T20:13:49.964Z,33.10
2018-09-30T20:16:18.494Z,32.47
2018-09-30T20:18:47.112Z,37.00
2018-09-30T20:21:17.530Z,33.70
2018-09-30T20:23:46.035Z,36.37
2018-09-30T20:31:13.478Z,40.80
2018-09-30T20:33:41.994Z,37.57
2018-09-30T20:36:11.418Z,38.30
2018-09-30T20:38:40.745Z,34.67
2018-09-30T20:41:09.274Z,35.50
2018-09-30T20:43:37.778Z,32.93
2018-09-30T20:46:06.479Z,36.03
2018-09-30T20:48:35.097Z,34.67
2018-09-30T20:51:03.603Z,32.90
2018-09-30T20:53:32.208Z,35.03
2018-09-30T20:56:00.759Z,32.90
2018-09-30T20:58:30.568Z,34.70
2018-09-30T21:00:59.252Z,32.60
2018-09-30T21:03:28.452Z,38.35
2018-09-30T21:06:15.419Z,38.47
2018-09-30T21:08:45.016Z,39.40
2018-09-30T21:11:13.585Z,33.98
2018-09-30T21:13:42.574Z,36.43
2018-09-30T21:16:11.211Z,37.10
2018-09-30T21:18:39.819Z,35.83
2018-09-30T21:21:09.145Z,39.30
2018-09-30T21:23:37.651Z,37.87
2018-09-30T21:26:06.225Z,37.90
2018-09-30T21:28:34.770Z,35.85
2018-09-30T21:31:03.265Z,33.37
2018-09-30T21:33:31.748Z,34.10
2018-09-30T21:36:01.290Z,33.17
2018-09-30T21:38:29.797Z,33.47
2018-09-30T21:40:58.804Z,31.03
2018-09-30T21:43:27.898Z,31.50
2018-09-30T21:45:56.377Z,33.13
2018-09-30T21:48:24.849Z,35.03
2018-09-30T21:50:53.414Z,32.80
2018-09-30T21:53:21.894Z,33.40
2018-09-30T21:55:50.497Z,32.60
2018-09-30T21:58:19.130Z,31.57
2018-09-30T22:00:53.585Z,29.97
2018-09-30T22:03:22.182Z,32.23
2018-09-30T22:05:51.322Z,35.73
2018-09-30T22:08:20.322Z,33.63
2018-09-30T22:10:49.018Z,32.77
2018-09-30T22:13:17.877Z,33.55
2018-09-30T22:15:46.472Z,31.90
2018-09-30T22:23:13.099Z,32.33
2018-09-30T22:25:41.650Z,34.13
2018-09-30T22:28:10.147Z,34.83
2018-09-30T22:30:38.699Z,34.83
2018-09-30T22:33:08.560Z,31.30
2018-09-30T22:35:37.110Z,34.43
2018-09-30T22:38:05.662Z,32.50
2018-09-30T22:40:34.150Z,33.35
2018-09-30T22:43:02.738Z,34.70
2018-09-30T22:45:31.747Z,33.70
2018-09-30T22:48:00.750Z,29.00
2018-09-30T22:50:29.297Z,33.33
2018-09-30T22:52:57.859Z,32.00
2018-09-30T22:55:26.382Z,35.33
2018-09-30T22:57:54.939Z,33.50
2018-09-30T23:00:23.614Z,31.40
2018-09-30T23:02:52.117Z,37.60
2018-09-30T23:05:20.630Z,35.75
2018-09-30T23:07:50.055Z,33.17
2018-09-30T23:10:18.599Z,33.30
2018-09-30T23:12:47.137Z,31.00
2018-09-30T23:15:18.809Z,29.30
2018-09-30T23:17:48.519Z,31.62
2018-09-30T23:20:18.458Z,34.13
2018-09-30T23:22:47.335Z,33.03
2018-09-30T23:25:17.399Z,34.45
2018-09-30T23:27:46.207Z,34.57
2018-09-30T23:35:14.494Z,32.40
2018-09-30T23:37:42.970Z,32.13
2018-09-30T23:40:11.500Z,32.70
2018-09-30T23:42:40.012Z,36.47
2018-09-30T23:45:08.543Z,35.70
2018-09-30T23:47:37.077Z,33.43
2018-09-30T23:50:05.880Z,32.00
2018-09-30T23:52:34.418Z,32.75
2018-09-30T23:55:02.942Z,33.30
2018-09-30T23:57:32.029Z,33.80
